createdAt,value
2023-02-16T00:01:47.000Z,0.60
2023-02-16T00:04:20.778Z,0.60
2023-02-16T00:06:49.258Z,0.60
2023-02-16T00:09:17.552Z,0.60
2023-02-16T00:12:04.300Z,0.60
2023-02-16T00:14:34.440Z,0.60
2023-02-16T00:17:02.976Z,8.53
2023-02-16T00:19:35.927Z,0.60
2023-02-16T00:22:04.448Z,0.60
2023-02-16T00:24:33.188Z,0.60
2023-02-16T00:27:02.205Z,0.60
2023-02-16T00:29:31.945Z,0.60
2023-02-16T00:32:02.017Z,0.60
2023-02-16T00:34:34.734Z,0.70
2023-02-16T00:37:05.057Z,0.60
2023-02-16T00:39:33.443Z,0.60
2023-02-16T00:42:03.972Z,0.60
2023-02-16T00:44:35.320Z,0.60
2023-02-16T00:47:19.138Z,0.60
2023-02-16T00:49:49.258Z,0.60
2023-02-16T00:52:30.794Z,0.70
2023-02-16T00:54:58.978Z,0.60
2023-02-16T00:57:28.436Z,0.80
2023-02-16T01:00:01.236Z,0.60
2023-02-16T01:02:30.181Z,0.60
2023-02-16T01:04:59.442Z,0.60
2023-02-16T01:07:44.754Z,0.60
2023-02-16T01:10:30.602Z,0.60
2023-02-16T01:12:58.683Z,0.60
2023-02-16T01:15:27.468Z,0.60
2023-02-16T01:17:55.414Z,0.60
2023-02-16T01:20:26.779Z,0.60
2023-02-16T01:22:54.912Z,0.60
2023-02-16T01:25:22.849Z,0.60
2023-02-16T01:27:51.325Z,0.70
2023-02-16T01:30:21.395Z,0.60
2023-02-16T01:32:51.713Z,0.60
2023-02-16T01:35:20.103Z,0.60
2023-02-16T01:37:49.829Z,0.60
2023-02-16T01:40:31.593Z,0.60
2023-02-16T01:43:05.599Z,0.60
2023-02-16T01:45:36.703Z,0.60
2023-02-16T01:48:06.216Z,0.60
2023-02-16T01:50:47.588Z,0.60
2023-02-16T01:53:22.417Z,0.70
2023-02-16T01:55:58.046Z,0.70
2023-02-16T01:58:36.716Z,0.60
2023-02-16T02:01:53.622Z,0.60
2023-02-16T02:04:48.144Z,0.60
2023-02-16T02:07:23.221Z,0.60
2023-02-16T02:09:58.814Z,0.60
2023-02-16T02:12:34.307Z,0.60
2023-02-16T02:15:02.273Z,0.60
2023-02-16T02:17:30.520Z,0.60
2023-02-16T02:20:06.170Z,0.60
2023-02-16T02:23:33.817Z,0.60
2023-02-16T02:26:37.330Z,0.60
2023-02-16T02:29:29.174Z,0.60
2023-02-16T02:32:07.131Z,0.60
2023-02-16T02:34:49.932Z,0.60
2023-02-16T02:37:27.524Z,0.60
2023-02-16T02:40:04.299Z,0.60
2023-02-16T02:42:39.541Z,0.60
2023-02-16T02:45:15.017Z,0.60
2023-02-16T02:47:45.097Z,0.60
2023-02-16T02:51:16.224Z,0.60
2023-02-16T02:53:49.501Z,0.60
2023-02-16T02:56:36.809Z,0.60
2023-02-16T02:59:26.690Z,0.60
2023-02-16T03:02:01.990Z,0.60
2023-02-16T03:04:32.751Z,0.60
2023-02-16T03:07:03.506Z,0.70
2023-02-16T03:09:31.574Z,0.60
2023-02-16T03:12:18.551Z,0.60
2023-02-16T03:14:52.468Z,0.60
2023-02-16T03:17:46.051Z,0.60
2023-02-16T03:20:35.006Z,0.60
2023-02-16T03:23:22.094Z,0.60
2023-02-16T03:26:09.371Z,0.60
2023-02-16T03:28:58.922Z,0.60
2023-02-16T03:31:31.796Z,0.60
2023-02-16T03:34:01.590Z,0.60
2023-02-16T03:36:32.652Z,0.60
2023-02-16T03:39:01.093Z,0.60
2023-02-16T03:41:33.759Z,0.60
2023-02-16T03:44:01.938Z,0.60
2023-02-16T03:46:29.951Z,0.60
2023-02-16T03:48:57.899Z,0.60
2023-02-16T03:51:27.228Z,0.60
2023-02-16T03:53:55.465Z,0.60
2023-02-16T03:56:23.654Z,0.60
2023-02-16T03:58:51.533Z,0.60
2023-02-16T04:01:19.485Z,0.60
2023-02-16T04:03:47.405Z,0.60
2023-02-16T04:06:15.623Z,0.60
2023-02-16T04:08:44.887Z,0.60
2023-02-16T04:11:38.667Z,0.60
2023-02-16T04:14:06.537Z,2.40
2023-02-16T04:16:34.487Z,0.60
2023-02-16T04:19:02.394Z,0.60
2023-02-16T04:21:30.347Z,0.60
2023-02-16T04:23:59.624Z,0.60
2023-02-16T04:26:27.919Z,0.60
2023-02-16T04:28:55.777Z,0.60
2023-02-16T04:31:23.865Z,0.60
2023-02-16T04:33:51.785Z,0.60
2023-02-16T04:36:19.693Z,0.60
2023-02-16T04:38:47.599Z,0.60
2023-02-16T04:41:16.897Z,7.57
2023-02-16T04:43:44.802Z,0.60
2023-02-16T04:46:12.783Z,2.20
2023-02-16T04:48:40.731Z,0.60
2023-02-16T04:51:08.592Z,0.60
2023-02-16T04:53:36.514Z,0.60
2023-02-16T04:56:04.704Z,0.60
2023-02-16T04:58:33.946Z,0.70
2023-02-16T05:01:02.129Z,0.60
2023-02-16T05:03:30.327Z,0.60
2023-02-16T05:05:58.275Z,0.60
2023-02-16T05:08:26.390Z,0.60
2023-02-16T05:11:08.291Z,0.60
2023-02-16T05:13:51.503Z,0.73
2023-02-16T05:16:21.593Z,0.60
2023-02-16T05:18:49.500Z,0.60
2023-02-16T05:21:32.873Z,0.60
2023-02-16T05:24:02.139Z,0.60
2023-02-16T05:26:30.634Z,0.60
2023-02-16T05:29:00.298Z,0.60
2023-02-16T05:31:29.320Z,0.60
2023-02-16T05:33:57.568Z,0.60
2023-02-16T05:36:25.991Z,0.60
2023-02-16T05:38:53.913Z,0.80
2023-02-16T05:41:24.545Z,0.80
2023-02-16T05:43:53.398Z,1.33
2023-02-16T05:46:23.621Z,0.60
2023-02-16T05:48:52.195Z,0.60
2023-02-16T05:51:20.712Z,0.60
2023-02-16T05:53:48.879Z,0.60
2023-02-16T05:56:17.985Z,0.90
2023-02-16T05:58:45.854Z,0.60
2023-02-16T06:01:14.164Z,0.60
2023-02-16T06:03:43.865Z,0.60
2023-02-16T06:06:12.672Z,0.60
2023-02-16T06:08:40.700Z,0.60
2023-02-16T06:11:28.978Z,0.60
2023-02-16T06:13:58.140Z,0.60
2023-02-16T06:16:26.994Z,0.60
2023-02-16T06:18:57.509Z,0.60
2023-02-16T06:21:26.251Z,0.60
2023-02-16T06:23:55.112Z,0.63
2023-02-16T06:26:23.147Z,0.60
2023-02-16T06:28:51.112Z,0.60
2023-02-16T06:31:19.184Z,0.60
2023-02-16T06:33:47.675Z,0.60
2023-02-16T06:36:17.789Z,0.60
2023-02-16T06:38:45.878Z,0.60
2023-02-16T06:41:13.754Z,0.60
2023-02-16T06:43:41.626Z,0.60
2023-02-16T06:46:09.585Z,0.60
2023-02-16T06:48:37.475Z,0.67
2023-02-16T06:51:06.316Z,0.60
2023-02-16T06:53:35.736Z,0.60
2023-02-16T06:56:03.623Z,0.60
2023-02-16T06:58:32.324Z,0.60
2023-02-16T07:01:00.350Z,0.60
2023-02-16T07:03:28.307Z,0.60
2023-02-16T07:05:56.399Z,0.60
2023-02-16T07:08:24.352Z,0.60
2023-02-16T07:10:54.956Z,0.70
2023-02-16T07:13:23.080Z,0.60
2023-02-16T07:15:51.171Z,0.60
2023-02-16T07:18:19.112Z,0.60
2023-02-16T07:20:48.163Z,0.60
2023-02-16T07:23:16.135Z,1.77
2023-02-16T07:25:44.065Z,0.60
2023-02-16T07:28:13.417Z,1.13
2023-02-16T07:30:42.077Z,1.30
2023-02-16T07:33:10.095Z,0.60
2023-02-16T07:35:38.672Z,0.70
2023-02-16T07:38:06.643Z,0.60
2023-02-16T07:40:34.847Z,0.60
2023-02-16T07:43:03.408Z,0.70
2023-02-16T07:45:33.988Z,0.60
2023-02-16T07:48:02.266Z,0.60
2023-02-16T07:50:30.239Z,0.60
2023-02-16T07:52:58.094Z,0.70
2023-02-16T07:55:26.007Z,0.60
2023-02-16T07:57:57.891Z,0.60
2023-02-16T08:00:26.010Z,0.60
2023-02-16T08:02:55.430Z,0.60
2023-02-16T08:05:23.384Z,0.60
2023-02-16T08:07:51.275Z,0.60
2023-02-16T08:10:19.504Z,3.90
2023-02-16T08:12:47.597Z,0.60
2023-02-16T08:15:15.473Z,0.60
2023-02-16T08:17:43.571Z,0.60
2023-02-16T08:20:14.170Z,0.60
2023-02-16T08:22:42.097Z,0.60
2023-02-16T08:25:10.030Z,1.93
2023-02-16T08:27:37.976Z,0.60
2023-02-16T08:30:12.577Z,5.10
2023-02-16T08:32:41.256Z,0.60
2023-02-16T08:35:10.023Z,0.60
2023-02-16T08:37:40.252Z,0.60
2023-02-16T08:40:10.487Z,0.60
2023-02-16T08:42:38.853Z,0.70
2023-02-16T08:45:07.912Z,1.97
2023-02-16T08:47:36.780Z,0.60
2023-02-16T08:50:04.822Z,0.60
2023-02-16T08:52:32.682Z,0.60
2023-02-16T08:55:01.966Z,0.60
2023-02-16T08:57:29.844Z,0.60
2023-02-16T09:00:11.591Z,0.60
2023-02-16T09:02:39.732Z,0.60
2023-02-16T09:05:08.136Z,0.60
2023-02-16T09:07:36.094Z,0.60
2023-02-16T09:10:06.090Z,0.60
2023-02-16T09:12:36.606Z,0.60
2023-02-16T09:15:04.678Z,0.77
2023-02-16T09:17:32.696Z,0.60
2023-02-16T09:20:00.761Z,0.60
2023-02-16T09:22:28.642Z,2.17
2023-02-16T09:24:56.642Z,0.60
2023-02-16T09:27:26.035Z,1.77
2023-02-16T09:29:54.547Z,0.60
2023-02-16T09:32:22.786Z,0.60
2023-02-16T09:34:51.242Z,2.70
2023-02-16T09:37:19.082Z,0.60
2023-02-16T09:39:47.163Z,0.60
2023-02-16T09:42:26.725Z,0.60
2023-02-16T09:45:04.135Z,0.60
2023-02-16T09:47:35.694Z,0.70
2023-02-16T09:50:08.423Z,0.80
2023-02-16T09:52:40.198Z,0.60
2023-02-16T09:55:12.501Z,0.60
2023-02-16T09:57:47.403Z,0.60
2023-02-16T10:00:26.901Z,0.60
2023-02-16T10:03:00.781Z,0.60
2023-02-16T10:05:33.694Z,0.60
2023-02-16T10:08:07.597Z,0.60
2023-02-16T10:10:43.919Z,0.60
2023-02-16T10:13:20.009Z,0.60
2023-02-16T10:15:53.854Z,0.60
2023-02-16T10:18:27.206Z,0.60
2023-02-16T10:20:57.559Z,0.60
2023-02-16T10:23:38.862Z,0.60
2023-02-16T10:26:16.794Z,0.60
2023-02-16T10:28:48.880Z,0.70
2023-02-16T10:31:25.187Z,0.60
2023-02-16T10:34:12.090Z,1.67
2023-02-16T10:36:59.008Z,0.60
2023-02-16T10:39:34.663Z,0.60
2023-02-16T10:42:12.576Z,0.60
2023-02-16T10:44:44.488Z,0.60
2023-02-16T10:47:23.642Z,0.60
2023-02-16T10:49:52.862Z,0.60
2023-02-16T10:52:22.044Z,0.70
2023-02-16T10:54:49.922Z,0.60
2023-02-16T10:57:26.464Z,0.60
2023-02-16T10:59:55.885Z,0.60
2023-02-16T11:02:28.864Z,0.60
2023-02-16T11:04:58.867Z,3.40
2023-02-16T11:07:28.662Z,2.07
2023-02-16T11:10:00.827Z,1.63
2023-02-16T11:12:30.876Z,2.77
2023-02-16T11:15:03.269Z,2.60
2023-02-16T11:17:48.416Z,2.97
2023-02-16T11:20:29.722Z,2.90
2023-02-16T11:23:15.008Z,3.80
2023-02-16T11:25:43.124Z,3.20
2023-02-16T11:28:12.319Z,2.97
2023-02-16T11:30:42.495Z,2.67
2023-02-16T11:33:23.519Z,1.80
2023-02-16T11:35:52.057Z,2.90
2023-02-16T11:38:31.887Z,1.63
2023-02-16T11:41:02.501Z,3.10
2023-02-16T11:43:33.534Z,2.03
2023-02-16T11:46:04.642Z,3.10
2023-02-16T11:48:36.876Z,3.67
2023-02-16T11:51:07.223Z,2.40
2023-02-16T11:53:37.046Z,2.50
2023-02-16T11:56:15.244Z,1.57
2023-02-16T11:58:43.180Z,2.33
2023-02-16T12:01:22.273Z,2.23
2023-02-16T12:04:03.065Z,2.03
2023-02-16T12:06:45.264Z,4.03
2023-02-16T12:09:23.568Z,1.53
2023-02-16T12:12:02.438Z,2.00
2023-02-16T12:14:43.484Z,2.50
2023-02-16T12:17:28.349Z,2.57
2023-02-16T12:20:06.061Z,1.73
2023-02-16T12:22:41.058Z,2.47
2023-02-16T12:25:27.923Z,1.80
2023-02-16T12:28:08.283Z,3.00
2023-02-16T12:30:53.113Z,2.63
2023-02-16T12:33:33.179Z,2.33
2023-02-16T12:36:29.712Z,1.83
2023-02-16T12:39:08.534Z,1.80
2023-02-16T12:41:46.919Z,1.43
2023-02-16T12:44:19.556Z,2.13
2023-02-16T12:46:50.672Z,2.33
2023-02-16T12:49:24.431Z,2.40
2023-02-16T12:51:59.378Z,1.50
2023-02-16T12:54:31.114Z,2.43
2023-02-16T12:57:04.577Z,3.10
2023-02-16T12:59:38.618Z,3.30
2023-02-16T13:02:16.219Z,2.87
2023-02-16T13:04:48.027Z,1.80
2023-02-16T13:07:22.680Z,1.77
2023-02-16T13:09:56.330Z,3.57
2023-02-16T13:12:31.505Z,3.10
2023-02-16T13:15:07.942Z,2.80
2023-02-16T13:17:40.864Z,1.63
2023-02-16T13:20:15.131Z,3.37
2023-02-16T13:23:06.578Z,1.70
2023-02-16T13:25:56.841Z,2.93
2023-02-16T13:28:40.642Z,1.40
2023-02-16T13:31:19.074Z,1.70
2023-02-16T13:34:28.736Z,3.20
2023-02-16T13:37:20.755Z,5.20
2023-02-16T13:40:11.821Z,2.30
2023-02-16T13:43:13.206Z,2.83
2023-02-16T13:45:44.629Z,2.77
2023-02-16T13:48:21.892Z,4.27
2023-02-16T13:50:58.436Z,3.00
2023-02-16T13:53:26.975Z,2.87
2023-02-16T13:56:17.675Z,1.87
2023-02-16T13:58:45.648Z,2.40
2023-02-16T14:01:38.656Z,2.13
2023-02-16T14:04:12.045Z,3.00
2023-02-16T14:06:42.743Z,2.10
2023-02-16T14:09:34.961Z,3.90
2023-02-16T14:12:14.253Z,2.73
2023-02-16T14:14:57.466Z,1.13
2023-02-16T14:17:29.697Z,3.67
2023-02-16T14:20:00.609Z,1.93
2023-02-16T14:22:35.620Z,3.50
2023-02-16T14:25:06.686Z,2.70
2023-02-16T14:27:45.139Z,2.07
2023-02-16T14:30:28.015Z,4.07
2023-02-16T14:33:02.085Z,2.13
2023-02-16T14:35:34.743Z,3.13
2023-02-16T14:38:04.758Z,2.27
2023-02-16T14:40:53.027Z,2.70
2023-02-16T14:43:28.174Z,3.87
2023-02-16T14:46:28.054Z,4.83
2023-02-16T14:49:25.817Z,2.43
2023-02-16T14:52:20.822Z,4.30
2023-02-16T14:55:12.271Z,4.80
2023-02-16T14:57:48.447Z,3.00
2023-02-16T15:00:24.623Z,3.80
2023-02-16T15:02:58.848Z,2.87
2023-02-16T15:05:29.950Z,2.47
2023-02-16T15:08:09.084Z,2.27
2023-02-16T15:10:39.042Z,4.30
2023-02-16T15:13:07.003Z,1.60
2023-02-16T15:15:44.871Z,2.70
2023-02-16T15:18:17.254Z,2.30
2023-02-16T15:20:47.234Z,3.40
2023-02-16T15:23:21.460Z,3.00
2023-02-16T15:25:59.644Z,4.13
2023-02-16T15:28:29.466Z,2.30
2023-02-16T15:31:00.908Z,2.43
2023-02-16T15:33:37.240Z,4.50
2023-02-16T15:36:08.975Z,3.27
2023-02-16T15:38:39.698Z,3.20
2023-02-16T15:41:09.915Z,4.30
2023-02-16T15:43:40.501Z,2.57
2023-02-16T15:46:23.672Z,5.53
2023-02-16T15:48:51.582Z,3.60
2023-02-16T15:51:24.906Z,2.83
2023-02-16T15:53:54.612Z,4.67
2023-02-16T15:56:41.276Z,3.83
2023-02-16T15:59:34.310Z,2.73
2023-02-16T16:02:13.786Z,1.77
2023-02-16T16:04:43.204Z,3.00
2023-02-16T16:07:15.465Z,3.20
2023-02-16T16:09:45.277Z,2.30
2023-02-16T16:12:15.343Z,2.37
2023-02-16T16:14:50.287Z,3.90
2023-02-16T16:17:23.488Z,2.70
2023-02-16T16:19:51.941Z,6.97
2023-02-16T16:22:34.275Z,2.20
2023-02-16T16:25:02.932Z,2.93
2023-02-16T16:27:33.419Z,2.90
2023-02-16T16:30:22.224Z,2.33
2023-02-16T16:33:00.510Z,3.40
2023-02-16T16:35:37.111Z,1.83
2023-02-16T16:38:05.622Z,2.93
2023-02-16T16:40:36.622Z,2.53
2023-02-16T16:43:10.650Z,3.33
2023-02-16T16:45:41.079Z,3.00
2023-02-16T16:48:15.852Z,4.87
2023-02-16T16:50:44.998Z,4.90
2023-02-16T16:53:42.587Z,2.37
2023-02-16T16:56:14.268Z,1.60
2023-02-16T16:58:43.399Z,2.37
2023-02-16T17:01:13.574Z,3.20
2023-02-16T17:03:43.161Z,2.90
2023-02-16T17:06:14.078Z,1.57
2023-02-16T17:08:42.538Z,4.07
2023-02-16T17:11:14.648Z,1.97
2023-02-16T17:13:42.535Z,3.60
2023-02-16T17:16:17.800Z,1.70
2023-02-16T17:18:47.056Z,2.50
2023-02-16T17:21:19.475Z,5.03
2023-02-16T17:23:52.789Z,3.90
2023-02-16T17:26:21.638Z,4.00
2023-02-16T17:28:49.590Z,3.33
2023-02-16T17:31:17.650Z,1.83
2023-02-16T17:33:46.936Z,2.90
2023-02-16T17:36:16.581Z,2.47
2023-02-16T17:38:45.099Z,2.20
2023-02-16T17:41:20.481Z,3.17
2023-02-16T17:43:48.496Z,2.53
2023-02-16T17:46:17.347Z,3.00
2023-02-16T17:48:51.861Z,2.97
2023-02-16T17:51:22.331Z,3.20
2023-02-16T17:53:50.385Z,3.20
2023-02-16T17:56:22.633Z,2.93
2023-02-16T17:58:50.863Z,2.77
2023-02-16T18:01:19.576Z,1.50
2023-02-16T18:03:48.875Z,2.73
2023-02-16T18:06:18.421Z,2.20
2023-02-16T18:08:46.574Z,3.27
2023-02-16T18:11:14.846Z,3.30
2023-02-16T18:13:42.763Z,2.03
2023-02-16T18:16:15.845Z,3.13
2023-02-16T18:18:43.781Z,3.77
2023-02-16T18:21:13.033Z,2.73
2023-02-16T18:23:40.982Z,4.33
2023-02-16T18:26:09.105Z,3.07
2023-02-16T18:28:36.964Z,2.63
2023-02-16T18:31:07.402Z,2.83
2023-02-16T18:33:35.590Z,3.57
2023-02-16T18:36:04.836Z,3.60
2023-02-16T18:38:34.385Z,4.53
2023-02-16T18:41:02.320Z,3.10
2023-02-16T18:43:30.168Z,4.40
2023-02-16T18:45:58.448Z,2.77
2023-02-16T18:48:26.424Z,2.90
2023-02-16T18:50:54.324Z,5.73
2023-02-16T18:53:22.219Z,4.60
2023-02-16T18:55:51.441Z,3.83
2023-02-16T18:58:19.432Z,2.10
2023-02-16T19:00:48.610Z,3.50
2023-02-16T19:03:16.552Z,2.47
2023-02-16T19:05:44.543Z,3.30
2023-02-16T19:08:12.482Z,3.47
2023-02-16T19:10:40.342Z,4.23
2023-02-16T19:13:09.551Z,3.90
2023-02-16T19:15:37.800Z,2.83
2023-02-16T19:18:06.063Z,2.50
2023-02-16T19:20:34.615Z,4.20
2023-02-16T19:23:02.579Z,4.27
2023-02-16T19:25:30.439Z,3.87
2023-02-16T19:27:58.388Z,3.70
2023-02-16T19:30:27.711Z,2.90
2023-02-16T19:32:56.720Z,3.53
2023-02-16T19:35:24.648Z,1.57
2023-02-16T19:37:53.582Z,4.27
2023-02-16T19:40:21.495Z,2.57
2023-02-16T19:42:49.394Z,3.03
2023-02-16T19:45:17.385Z,4.47
2023-02-16T19:47:46.543Z,4.33
2023-02-16T19:50:14.393Z,2.60
2023-02-16T19:52:42.294Z,3.80
2023-02-16T19:55:11.585Z,3.40
2023-02-16T19:57:39.690Z,4.97
2023-02-16T20:00:11.470Z,2.80
2023-02-16T20:02:39.481Z,3.37
2023-02-16T20:05:09.675Z,3.20
2023-02-16T20:07:37.771Z,3.33
2023-02-16T20:10:06.584Z,3.57
2023-02-16T20:12:34.598Z,2.67
2023-02-16T20:15:02.500Z,2.57
2023-02-16T20:17:30.390Z,4.37
2023-02-16T20:19:59.729Z,2.37
2023-02-16T20:22:29.731Z,3.67
2023-02-16T20:24:57.599Z,2.87
2023-02-16T20:27:27.774Z,3.20
2023-02-16T20:29:55.792Z,2.70
2023-02-16T20:32:25.576Z,2.90
2023-02-16T20:34:53.578Z,2.27
2023-02-16T20:37:21.736Z,2.60
2023-02-16T20:39:51.146Z,2.37
2023-02-16T20:42:19.009Z,2.30
2023-02-16T20:44:46.851Z,2.63
2023-02-16T20:47:14.742Z,4.00
2023-02-16T20:49:42.678Z,3.90
2023-02-16T20:52:11.066Z,1.13
2023-02-16T20:54:39.015Z,1.70
2023-02-16T20:57:21.377Z,2.40
2023-02-16T20:59:53.877Z,1.70
2023-02-16T21:02:21.787Z,1.63
2023-02-16T21:04:49.714Z,1.40
2023-02-16T21:07:17.658Z,1.30
2023-02-16T21:09:45.572Z,3.17
2023-02-16T21:12:14.830Z,1.50
2023-02-16T21:14:42.816Z,1.40
2023-02-16T21:17:10.697Z,1.53
2023-02-16T21:19:39.090Z,1.57
2023-02-16T21:22:07.042Z,0.80
2023-02-16T21:24:35.074Z,2.17
2023-02-16T21:27:03.313Z,0.90
2023-02-16T21:29:32.565Z,1.97
2023-02-16T21:32:00.555Z,1.60
2023-02-16T21:34:28.576Z,1.10
2023-02-16T21:36:56.510Z,2.03
2023-02-16T21:39:44.641Z,1.73
2023-02-16T21:42:11.636Z,0.90
2023-02-16T21:44:43.126Z,1.90
2023-02-16T21:47:30.789Z,1.50
2023-02-16T21:49:58.845Z,1.57
2023-02-16T21:52:26.999Z,0.90
2023-02-16T21:55:12.346Z,2.20
2023-02-16T21:57:40.237Z,1.27
2023-02-16T22:00:15.427Z,1.43
2023-02-16T22:02:43.331Z,1.43
2023-02-16T22:05:13.553Z,1.00
2023-02-16T22:07:41.516Z,1.00
2023-02-16T22:10:10.461Z,1.40
2023-02-16T22:12:38.449Z,1.23
2023-02-16T22:15:06.853Z,2.23
2023-02-16T22:17:36.109Z,1.10
2023-02-16T22:20:04.540Z,0.97
2023-02-16T22:22:32.463Z,1.30
2023-02-16T22:25:00.435Z,0.70
2023-02-16T22:27:28.356Z,1.17
2023-02-16T22:29:56.341Z,1.67
2023-02-16T22:32:24.217Z,1.10
2023-02-16T22:34:54.716Z,1.20
2023-02-16T22:37:22.632Z,0.70
2023-02-16T22:39:51.833Z,1.53
2023-02-16T22:42:19.805Z,1.47
2023-02-16T22:44:47.815Z,0.93
2023-02-16T22:47:15.715Z,0.70
2023-02-16T22:49:43.817Z,1.60
2023-02-16T22:52:15.434Z,1.40
2023-02-16T22:54:43.473Z,4.43
2023-02-16T22:57:11.405Z,1.10
2023-02-16T22:59:39.335Z,1.57
2023-02-16T23:02:07.266Z,1.50
2023-02-16T23:04:35.296Z,0.90
2023-02-16T23:07:03.221Z,2.00
2023-02-16T23:09:32.545Z,0.90
2023-02-16T23:12:00.400Z,0.80
2023-02-16T23:14:29.273Z,1.00
2023-02-16T23:16:57.421Z,2.00
2023-02-16T23:19:26.970Z,1.20
2023-02-16T23:21:55.482Z,0.80
2023-02-16T23:24:24.456Z,1.80
2023-02-16T23:26:54.101Z,1.67
2023-02-16T23:29:22.246Z,0.63
2023-02-16T23:31:50.896Z,0.90
2023-02-16T23:34:20.483Z,0.77
2023-02-16T23:36:48.441Z,0.87
2023-02-16T23:39:18.493Z,0.60
2023-02-16T23:41:47.680Z,0.70
2023-02-16T23:44:17.010Z,1.13
2023-02-16T23:46:45.011Z,0.70
2023-02-16T23:49:12.887Z,0.80
2023-02-16T23:51:40.811Z,0.80
2023-02-16T23:54:10.785Z,0.90
2023-02-16T23:56:40.930Z,1.10
2023-02-16T23:59:08.881Z,1.17
